sensor_id;sensor_type;location;lat;lon;timestamp;temperature;humidity
62476;DHT22;50739;45.670;11.936;2023-09-18T00:00:07;22.69;89.41
62476;DHT22;50739;45.670;11.936;2023-09-18T00:05:12;22.61;89.43
62476;DHT22;50739;45.670;11.936;2023-09-18T00:10:15;22.65;89.39
62476;DHT22;50739;45.670;11.936;2023-09-18T00:15:19;22.69;89.00
62476;DHT22;50739;45.670;11.936;2023-09-18T00:20:21;22.69;89.09
62476;DHT22;50739;45.670;11.936;2023-09-18T00:25:27;22.57;89.62
62476;DHT22;50739;45.670;11.936;2023-09-18T00:30:33;22.47;89.74
62476;DHT22;50739;45.670;11.936;2023-09-18T00:35:35;22.43;89.75
62476;DHT22;50739;45.670;11.936;2023-09-18T00:40:37;22.48;89.50
62476;DHT22;50739;45.670;11.936;2023-09-18T00:45:42;22.44;89.85
62476;DHT22;50739;45.670;11.936;2023-09-18T00:50:46;22.33;90.36
62476;DHT22;50739;45.670;11.936;2023-09-18T00:55:49;22.43;90.10
62476;DHT22;50739;45.670;11.936;2023-09-18T01:00:54;22.35;90.54
62476;DHT22;50739;45.670;11.936;2023-09-18T01:05:56;22.33;90.20
62476;DHT22;50739;45.670;11.936;2023-09-18T01:11:04;22.43;90.23
62476;DHT22;50739;45.670;11.936;2023-09-18T01:16:16;22.35;90.26
62476;DHT22;50739;45.670;11.936;2023-09-18T01:21:19;22.23;90.48
62476;DHT22;50739;45.670;11.936;2023-09-18T01:26:24;22.19;90.70
62476;DHT22;50739;45.670;11.936;2023-09-18T01:31:26;22.32;89.94
62476;DHT22;50739;45.670;11.936;2023-09-18T01:36:29;22.26;89.99
62476;DHT22;50739;45.670;11.936;2023-09-18T01:41:33;22.20;90.38
62476;DHT22;50739;45.670;11.936;2023-09-18T01:46:35;22.17;90.40
62476;DHT22;50739;45.670;11.936;2023-09-18T01:51:38;22.23;90.28
62476;DHT22;50739;45.670;11.936;2023-09-18T01:56:42;22.03;90.98
62476;DHT22;50739;45.670;11.936;2023-09-18T02:01:44;22.02;90.98
62476;DHT22;50739;45.670;11.936;2023-09-18T02:06:48;22.00;91.06
62476;DHT22;50739;45.670;11.936;2023-09-18T02:11:52;21.96;90.97
62476;DHT22;50739;45.670;11.936;2023-09-18T02:16:54;22.03;90.70
62476;DHT22;50739;45.670;11.936;2023-09-18T02:21:59;21.95;91.02
62476;DHT22;50739;45.670;11.936;2023-09-18T02:27:05;21.85;91.18
62476;DHT22;50739;45.670;11.936;2023-09-18T02:32:08;21.92;91.15
62476;DHT22;50739;45.670;11.936;2023-09-18T02:37:11;21.93;90.79
62476;DHT22;50739;45.670;11.936;2023-09-18T02:42:14;21.95;90.96
62476;DHT22;50739;45.670;11.936;2023-09-18T02:47:16;22.03;90.75
62476;DHT22;50739;45.670;11.936;2023-09-18T02:52:19;22.10;90.38
62476;DHT22;50739;45.670;11.936;2023-09-18T02:57:23;22.05;91.04
62476;DHT22;50739;45.670;11.936;2023-09-18T03:02:25;22.08;90.59
62476;DHT22;50739;45.670;11.936;2023-09-18T03:07:27;22.16;90.78
62476;DHT22;50739;45.670;11.936;2023-09-18T03:12:32;22.08;91.57
62476;DHT22;50739;45.670;11.936;2023-09-18T03:17:34;22.00;91.76
62476;DHT22;50739;45.670;11.936;2023-09-18T03:22:36;22.03;91.91
62476;DHT22;50739;45.670;11.936;2023-09-18T03:27:40;22.14;91.48
62476;DHT22;50739;45.670;11.936;2023-09-18T03:32:42;22.14;91.82
62476;DHT22;50739;45.670;11.936;2023-09-18T03:37:45;22.20;91.70
62476;DHT22;50739;45.670;11.936;2023-09-18T03:42:49;22.27;91.62
62476;DHT22;50739;45.670;11.936;2023-09-18T03:47:51;22.24;91.49
62476;DHT22;50739;45.670;11.936;2023-09-18T03:52:54;22.19;91.69
62476;DHT22;50739;45.670;11.936;2023-09-18T03:57:58;22.23;91.34
62476;DHT22;50739;45.670;11.936;2023-09-18T04:03:01;22.17;91.22
62476;DHT22;50739;45.670;11.936;2023-09-18T04:08:03;22.14;91.37
62476;DHT22;50739;45.670;11.936;2023-09-18T04:13:07;22.09;90.83
62476;DHT22;50739;45.670;11.936;2023-09-18T04:18:10;22.09;90.77
62476;DHT22;50739;45.670;11.936;2023-09-18T04:23:21;22.10;89.45
62476;DHT22;50739;45.670;11.936;2023-09-18T04:28:25;21.99;89.52
62476;DHT22;50739;45.670;11.936;2023-09-18T04:33:27;21.99;89.35
62476;DHT22;50739;45.670;11.936;2023-09-18T04:38:30;21.98;89.28
62476;DHT22;50739;45.670;11.936;2023-09-18T04:43:33;21.96;89.29
62476;DHT22;50739;45.670;11.936;2023-09-18T04:48:36;21.96;89.33
62476;DHT22;50739;45.670;11.936;2023-09-18T04:53:39;21.96;89.52
62476;DHT22;50739;45.670;11.936;2023-09-18T04:58:43;21.93;89.58
62476;DHT22;50739;45.670;11.936;2023-09-18T05:03:45;21.93;89.30
62476;DHT22;50739;45.670;11.936;2023-09-18T05:08:49;22.02;89.31
62476;DHT22;50739;45.670;11.936;2023-09-18T05:13:54;22.03;89.14
62476;DHT22;50739;45.670;11.936;2023-09-18T05:18:56;22.02;89.45
62476;DHT22;50739;45.670;11.936;2023-09-18T05:23:58;22.00;89.67
62476;DHT22;50739;45.670;11.936;2023-09-18T05:29:02;22.02;89.57
62476;DHT22;50739;45.670;11.936;2023-09-18T05:34:04;21.99;89.47
62476;DHT22;50739;45.670;11.936;2023-09-18T05:39:07;22.05;89.52
62476;DHT22;50739;45.670;11.936;2023-09-18T05:44:12;22.02;89.90
62476;DHT22;50739;45.670;11.936;2023-09-18T05:49:15;22.05;89.60
62476;DHT22;50739;45.670;11.936;2023-09-18T05:54:17;22.10;89.55
62476;DHT22;50739;45.670;11.936;2023-09-18T05:59:21;22.14;89.42
62476;DHT22;50739;45.670;11.936;2023-09-18T06:04:24;22.17;89.38
62476;DHT22;50739;45.670;11.936;2023-09-18T06:09:26;22.13;89.61
62476;DHT22;50739;45.670;11.936;2023-09-18T06:14:30;22.14;89.86
62476;DHT22;50739;45.670;11.936;2023-09-18T06:19:32;22.30;89.27
62476;DHT22;50739;45.670;11.936;2023-09-18T06:24:36;22.46;88.77
62476;DHT22;50739;45.670;11.936;2023-09-18T06:29:40;22.40;88.56
62476;DHT22;50739;45.670;11.936;2023-09-18T06:34:43;22.47;88.52
62476;DHT22;50739;45.670;11.936;2023-09-18T06:39:48;22.47;88.68
62476;DHT22;50739;45.670;11.936;2023-09-18T06:44:52;22.46;88.82
62476;DHT22;50739;45.670;11.936;2023-09-18T06:49:54;22.48;88.88
62476;DHT22;50739;45.670;11.936;2023-09-18T06:54:57;22.44;88.94
62476;DHT22;50739;45.670;11.936;2023-09-18T07:00:00;22.50;88.67
62476;DHT22;50739;45.670;11.936;2023-09-18T07:05:05;22.56;88.60
62476;DHT22;50739;45.670;11.936;2023-09-18T07:10:08;22.64;88.04
62476;DHT22;50739;45.670;11.936;2023-09-18T07:15:12;22.68;88.33
62476;DHT22;50739;45.670;11.936;2023-09-18T07:20:14;22.75;88.29
62476;DHT22;50739;45.670;11.936;2023-09-18T07:25:18;22.88;88.31
62476;DHT22;50739;45.670;11.936;2023-09-18T07:30:21;22.92;87.73
62476;DHT22;50739;45.670;11.936;2023-09-18T07:35:27;22.96;87.65
62476;DHT22;50739;45.670;11.936;2023-09-18T07:40:30;22.98;87.47
62476;DHT22;50739;45.670;11.936;2023-09-18T07:45:33;23.11;87.45
62476;DHT22;50739;45.670;11.936;2023-09-18T07:50:36;23.16;87.28
62476;DHT22;50739;45.670;11.936;2023-09-18T07:55:38;23.18;87.46
62476;DHT22;50739;45.670;11.936;2023-09-18T08:00:42;23.19;87.31
62476;DHT22;50739;45.670;11.936;2023-09-18T08:05:44;23.32;87.23
62476;DHT22;50739;45.670;11.936;2023-09-18T08:10:48;23.36;86.99
62476;DHT22;50739;45.670;11.936;2023-09-18T08:15:52;23.50;87.11
62476;DHT22;50739;45.670;11.936;2023-09-18T08:20:54;23.56;86.97
62476;DHT22;50739;45.670;11.936;2023-09-18T08:25:58;23.64;86.82
62476;DHT22;50739;45.670;11.936;2023-09-18T08:31:03;23.75;86.14
62476;DHT22;50739;45.670;11.936;2023-09-18T08:36:05;24.00;86.02
62476;DHT22;50739;45.670;11.936;2023-09-18T08:41:08;24.15;85.59
62476;DHT22;50739;45.670;11.936;2023-09-18T08:46:12;24.28;85.46
62476;DHT22;50739;45.670;11.936;2023-09-18T08:51:15;24.44;85.90
62476;DHT22;50739;45.670;11.936;2023-09-18T08:56:18;24.71;85.26
62476;DHT22;50739;45.670;11.936;2023-09-18T09:01:22;24.69;84.90
62476;DHT22;50739;45.670;11.936;2023-09-18T09:06:24;24.70;85.77
62476;DHT22;50739;45.670;11.936;2023-09-18T09:11:27;24.81;85.42
62476;DHT22;50739;45.670;11.936;2023-09-18T09:16:30;24.86;85.52
62476;DHT22;50739;45.670;11.936;2023-09-18T09:21:39;24.80;85.50
62476;DHT22;50739;45.670;11.936;2023-09-18T09:26:42;24.69;85.85
62476;DHT22;50739;45.670;11.936;2023-09-18T09:31:46;24.55;86.32
62476;DHT22;50739;45.670;11.936;2023-09-18T09:36:52;24.52;86.48
62476;DHT22;50739;45.670;11.936;2023-09-18T09:41:55;24.52;86.45
62476;DHT22;50739;45.670;11.936;2023-09-18T09:46:59;24.52;86.67
62476;DHT22;50739;45.670;11.936;2023-09-18T09:52:02;24.49;86.98
62476;DHT22;50739;45.670;11.936;2023-09-18T09:57:06;24.48;86.77
62476;DHT22;50739;45.670;11.936;2023-09-18T10:02:10;24.53;86.62
62476;DHT22;50739;45.670;11.936;2023-09-18T10:07:16;24.76;86.48
62476;DHT22;50739;45.670;11.936;2023-09-18T10:12:20;24.87;86.01
62476;DHT22;50739;45.670;11.936;2023-09-18T10:17:24;24.90;85.96
62476;DHT22;50739;45.670;11.936;2023-09-18T10:22:30;24.83;86.31
62476;DHT22;50739;45.670;11.936;2023-09-18T10:27:39;24.79;85.82
62476;DHT22;50739;45.670;11.936;2023-09-18T10:32:44;24.73;85.67
62476;DHT22;50739;45.670;11.936;2023-09-18T10:37:49;24.66;86.30
62476;DHT22;50739;45.670;11.936;2023-09-18T10:42:54;24.52;86.51
62476;DHT22;50739;45.670;11.936;2023-09-18T10:48:00;24.52;86.81
62476;DHT22;50739;45.670;11.936;2023-09-18T10:53:04;24.55;86.92
62476;DHT22;50739;45.670;11.936;2023-09-18T10:58:06;24.59;86.46
62476;DHT22;50739;45.670;11.936;2023-09-18T11:03:12;24.63;86.65
62476;DHT22;50739;45.670;11.936;2023-09-18T11:08:28;24.73;86.43
62476;DHT22;50739;45.670;11.936;2023-09-18T11:13:34;24.79;86.57
62476;DHT22;50739;45.670;11.936;2023-09-18T11:18:38;24.81;86.14
62476;DHT22;50739;45.670;11.936;2023-09-18T11:23:40;24.92;86.05
62476;DHT22;50739;45.670;11.936;2023-09-18T11:28:47;25.01;85.46
62476;DHT22;50739;45.670;11.936;2023-09-18T11:33:52;25.14;84.74
62476;DHT22;50739;45.670;11.936;2023-09-18T11:38:55;25.15;84.74
62476;DHT22;50739;45.670;11.936;2023-09-18T11:44:31;25.34;84.35
62476;DHT22;50739;45.670;11.936;2023-09-18T11:49:35;25.35;83.83
62476;DHT22;50739;45.670;11.936;2023-09-18T11:54:39;25.35;83.99
62476;DHT22;50739;45.670;11.936;2023-09-18T11:59:42;25.29;84.36
62476;DHT22;50739;45.670;11.936;2023-09-18T12:04:48;25.39;83.56
62476;DHT22;50739;45.670;11.936;2023-09-18T12:09:51;25.56;83.56
62476;DHT22;50739;45.670;11.936;2023-09-18T12:14:55;25.67;83.01
62476;DHT22;50739;45.670;11.936;2023-09-18T12:19:59;25.80;82.78
62476;DHT22;50739;45.670;11.936;2023-09-18T12:25:10;25.83;83.20
62476;DHT22;50739;45.670;11.936;2023-09-18T12:30:13;25.77;82.46
62476;DHT22;50739;45.670;11.936;2023-09-18T12:35:23;25.80;82.33
62476;DHT22;50739;45.670;11.936;2023-09-18T12:40:30;25.94;82.01
62476;DHT22;50739;45.670;11.936;2023-09-18T12:45:34;26.02;82.07
62476;DHT22;50739;45.670;11.936;2023-09-18T12:50:38;26.05;81.55
62476;DHT22;50739;45.670;11.936;2023-09-18T12:55:41;26.00;82.34
62476;DHT22;50739;45.670;11.936;2023-09-18T13:00:45;25.98;81.83
62476;DHT22;50739;45.670;11.936;2023-09-18T13:05:49;25.87;81.88
62476;DHT22;50739;45.670;11.936;2023-09-18T13:10:55;25.73;82.51
62476;DHT22;50739;45.670;11.936;2023-09-18T13:15:59;25.50;83.32
62476;DHT22;50739;45.670;11.936;2023-09-18T13:21:10;25.35;84.08
62476;DHT22;50739;45.670;11.936;2023-09-18T13:26:13;25.31;85.41
62476;DHT22;50739;45.670;11.936;2023-09-18T13:31:15;25.43;84.17
62476;DHT22;50739;45.670;11.936;2023-09-18T13:36:20;25.52;83.92
62476;DHT22;50739;45.670;11.936;2023-09-18T13:41:23;25.84;83.21
62476;DHT22;50739;45.670;11.936;2023-09-18T13:46:25;25.84;83.34
62476;DHT22;50739;45.670;11.936;2023-09-18T13:51:29;25.73;83.35
62476;DHT22;50739;45.670;11.936;2023-09-18T13:56:32;26.02;82.95
62476;DHT22;50739;45.670;11.936;2023-09-18T14:01:34;26.22;82.53
62476;DHT22;50739;45.670;11.936;2023-09-18T14:06:38;26.69;81.35
62476;DHT22;50739;45.670;11.936;2023-09-18T14:11:40;28.04;77.39
62476;DHT22;50739;45.670;11.936;2023-09-18T14:16:43;27.38;78.70
62476;DHT22;50739;45.670;11.936;2023-09-18T14:21:46;26.78;81.03
62476;DHT22;50739;45.670;11.936;2023-09-18T14:26:50;26.52;81.05
62476;DHT22;50739;45.670;11.936;2023-09-18T14:31:53;26.39;80.78
62476;DHT22;50739;45.670;11.936;2023-09-18T14:36:56;26.31;81.97
62476;DHT22;50739;45.670;11.936;2023-09-18T14:41:59;26.16;82.02
62476;DHT22;50739;45.670;11.936;2023-09-18T14:47:01;26.38;81.30
62476;DHT22;50739;45.670;11.936;2023-09-18T14:52:05;26.46;81.93
62476;DHT22;50739;45.670;11.936;2023-09-18T14:57:08;26.28;80.31
62476;DHT22;50739;45.670;11.936;2023-09-18T15:02:11;26.11;79.20
62476;DHT22;50739;45.670;11.936;2023-09-18T15:07:15;26.05;78.86
62476;DHT22;50739;45.670;11.936;2023-09-18T15:12:17;25.93;79.14
62476;DHT22;50739;45.670;11.936;2023-09-18T15:17:20;25.96;79.33
62476;DHT22;50739;45.670;11.936;2023-09-18T15:22:23;26.28;78.19
62476;DHT22;50739;45.670;11.936;2023-09-18T15:27:26;26.31;78.25
62476;DHT22;50739;45.670;11.936;2023-09-18T15:32:28;26.29;78.91
62476;DHT22;50739;45.670;11.936;2023-09-18T15:37:32;26.21;79.58
62476;DHT22;50739;45.670;11.936;2023-09-18T15:42:35;26.00;79.63
62476;DHT22;50739;45.670;11.936;2023-09-18T15:47:37;25.91;79.91
62476;DHT22;50739;45.670;11.936;2023-09-18T15:52:41;25.81;81.04
62476;DHT22;50739;45.670;11.936;2023-09-18T15:57:43;25.87;81.07
62476;DHT22;50739;45.670;11.936;2023-09-18T16:02:45;25.96;80.95
62476;DHT22;50739;45.670;11.936;2023-09-18T16:07:51;25.91;81.10
62476;DHT22;50739;45.670;11.936;2023-09-18T16:12:59;25.83;81.55
62476;DHT22;50739;45.670;11.936;2023-09-18T16:18:01;26.07;80.65
62476;DHT22;50739;45.670;11.936;2023-09-18T16:23:06;25.86;81.32
62476;DHT22;50739;45.670;11.936;2023-09-18T16:28:08;25.69;82.24
62476;DHT22;50739;45.670;11.936;2023-09-18T16:33:11;25.62;82.83
62476;DHT22;50739;45.670;11.936;2023-09-18T16:38:14;25.53;83.40
62476;DHT22;50739;45.670;11.936;2023-09-18T16:43:17;25.43;83.98
62476;DHT22;50739;45.670;11.936;2023-09-18T16:48:22;25.32;84.53
62476;DHT22;50739;45.670;11.936;2023-09-18T16:53:26;25.25;84.74
62476;DHT22;50739;45.670;11.936;2023-09-18T16:58:29;25.17;84.81
62476;DHT22;50739;45.670;11.936;2023-09-18T17:03:31;25.14;85.00
62476;DHT22;50739;45.670;11.936;2023-09-18T17:08:35;25.08;85.25
62476;DHT22;50739;45.670;11.936;2023-09-18T17:13:37;25.04;85.68
62476;DHT22;50739;45.670;11.936;2023-09-18T17:18:39;25.03;85.76
62476;DHT22;50739;45.670;11.936;2023-09-18T17:23:45;24.95;86.21
62476;DHT22;50739;45.670;11.936;2023-09-18T17:28:47;24.94;86.37
62476;DHT22;50739;45.670;11.936;2023-09-18T17:33:49;24.88;88.37
62476;DHT22;50739;45.670;11.936;2023-09-18T17:38:54;24.60;91.02
62476;DHT22;50739;45.670;11.936;2023-09-18T17:43:56;24.53;92.30
62476;DHT22;50739;45.670;11.936;2023-09-18T17:48:58;24.39;93.47
62476;DHT22;50739;45.670;11.936;2023-09-18T17:54:02;24.25;92.53
62476;DHT22;50739;45.670;11.936;2023-09-18T17:59:06;24.09;93.30
62476;DHT22;50739;45.670;11.936;2023-09-18T18:04:09;24.11;94.26
62476;DHT22;50739;45.670;11.936;2023-09-18T18:09:12;24.08;93.91
62476;DHT22;50739;45.670;11.936;2023-09-18T18:14:15;24.01;94.15
62476;DHT22;50739;45.670;11.936;2023-09-18T18:19:19;24.05;94.29
62476;DHT22;50739;45.670;11.936;2023-09-18T18:24:23;23.95;94.20
62476;DHT22;50739;45.670;11.936;2023-09-18T18:29:25;23.82;94.88
62476;DHT22;50739;45.670;11.936;2023-09-18T18:34:28;23.79;93.96
62476;DHT22;50739;45.670;11.936;2023-09-18T18:39:32;23.75;91.84
62476;DHT22;50739;45.670;11.936;2023-09-18T18:44:34;23.57;91.15
62476;DHT22;50739;45.670;11.936;2023-09-18T18:49:36;23.61;91.34
62476;DHT22;50739;45.670;11.936;2023-09-18T18:54:40;23.46;92.14
62476;DHT22;50739;45.670;11.936;2023-09-18T18:59:43;23.16;90.18
62476;DHT22;50739;45.670;11.936;2023-09-18T19:04:46;23.34;87.77
62476;DHT22;50739;45.670;11.936;2023-09-18T19:09:49;23.39;88.49
62476;DHT22;50739;45.670;11.936;2023-09-18T19:14:52;23.40;90.07
62476;DHT22;50739;45.670;11.936;2023-09-18T19:19:55;23.40;90.76
62476;DHT22;50739;45.670;11.936;2023-09-18T19:24:59;23.51;90.83
62476;DHT22;50739;45.670;11.936;2023-09-18T19:30:02;23.43;90.87
62476;DHT22;50739;45.670;11.936;2023-09-18T19:35:08;23.46;91.15
62476;DHT22;50739;45.670;11.936;2023-09-18T19:40:12;23.40;91.54
62476;DHT22;50739;45.670;11.936;2023-09-18T19:45:15;23.30;91.85
62476;DHT22;50739;45.670;11.936;2023-09-18T19:50:18;23.45;91.44
62476;DHT22;50739;45.670;11.936;2023-09-18T19:55:22;23.53;91.69
62476;DHT22;50739;45.670;11.936;2023-09-18T20:00:25;23.57;91.41
62476;DHT22;50739;45.670;11.936;2023-09-18T20:05:28;23.57;91.62
62476;DHT22;50739;45.670;11.936;2023-09-18T20:10:32;23.18;88.80
62476;DHT22;50739;45.670;11.936;2023-09-18T20:15:34;23.13;89.02
62476;DHT22;50739;45.670;11.936;2023-09-18T20:20:37;23.18;89.55
62476;DHT22;50739;45.670;11.936;2023-09-18T20:25:41;23.06;90.32
62476;DHT22;50739;45.670;11.936;2023-09-18T20:30:50;23.15;90.62
62476;DHT22;50739;45.670;11.936;2023-09-18T20:35:57;23.13;90.70
62476;DHT22;50739;45.670;11.936;2023-09-18T20:41:01;22.99;90.82
62476;DHT22;50739;45.670;11.936;2023-09-18T20:46:03;22.87;90.79
62476;DHT22;50739;45.670;11.936;2023-09-18T20:51:07;22.87;89.99
62476;DHT22;50739;45.670;11.936;2023-09-18T20:56:10;22.48;89.92
62476;DHT22;50739;45.670;11.936;2023-09-18T21:01:13;22.44;89.29
62476;DHT22;50739;45.670;11.936;2023-09-18T21:06:15;22.30;89.57
62476;DHT22;50739;45.670;11.936;2023-09-18T21:11:19;22.27;89.50
62476;DHT22;50739;45.670;11.936;2023-09-18T21:16:22;22.35;89.31
62476;DHT22;50739;45.670;11.936;2023-09-18T21:21:24;22.40;89.27
62476;DHT22;50739;45.670;11.936;2023-09-18T21:26:28;22.30;90.18
62476;DHT22;50739;45.670;11.936;2023-09-18T21:31:30;22.21;90.55
62476;DHT22;50739;45.670;11.936;2023-09-18T21:36:33;22.17;91.16
62476;DHT22;50739;45.670;11.936;2023-09-18T21:41:37;22.17;90.57
62476;DHT22;50739;45.670;11.936;2023-09-18T21:46:41;22.21;90.15
62476;DHT22;50739;45.670;11.936;2023-09-18T21:51:43;22.14;90.07
62476;DHT22;50739;45.670;11.936;2023-09-18T21:56:47;21.99;90.13
62476;DHT22;50739;45.670;11.936;2023-09-18T22:01:50;21.95;90.59
62476;DHT22;50739;45.670;11.936;2023-09-18T22:06:55;21.95;90.93
62476;DHT22;50739;45.670;11.936;2023-09-18T22:11:58;21.88;91.51
62476;DHT22;50739;45.670;11.936;2023-09-18T22:17:04;21.85;91.12
62476;DHT22;50739;45.670;11.936;2023-09-18T22:22:06;21.88;90.79
62476;DHT22;50739;45.670;11.936;2023-09-18T22:27:10;21.88;90.77
62476;DHT22;50739;45.670;11.936;2023-09-18T22:32:17;21.88;90.83
62476;DHT22;50739;45.670;11.936;2023-09-18T22:37:21;21.88;90.89
62476;DHT22;50739;45.670;11.936;2023-09-18T22:58:10;21.65;91.18
62476;DHT22;50739;45.670;11.936;2023-09-18T23:03:15;21.72;91.11
62476;DHT22;50739;45.670;11.936;2023-09-18T23:08:17;21.75;91.05
62476;DHT22;50739;45.670;11.936;2023-09-18T23:13:21;21.71;90.92
62476;DHT22;50739;45.670;11.936;2023-09-18T23:18:25;21.59;91.32
62476;DHT22;50739;45.670;11.936;2023-09-18T23:23:28;21.53;91.63
62476;DHT22;50739;45.670;11.936;2023-09-18T23:28:32;21.41;92.10
62476;DHT22;50739;45.670;11.936;2023-09-18T23:33:35;21.53;91.55
62476;DHT22;50739;45.670;11.936;2023-09-18T23:38:37;21.44;91.88
62476;DHT22;50739;45.670;11.936;2023-09-18T23:43:43;21.43;91.84
62476;DHT22;50739;45.670;11.936;2023-09-18T23:48:45;21.44;91.34
62476;DHT22;50739;45.670;11.936;2023-09-18T23:53:48;21.41;91.74
62476;DHT22;50739;45.670;11.936;2023-09-18T23:58:52;21.38;91.93
